createdAt,value
2023-10-10T00:02:20.807Z,31.21
2023-10-10T00:04:52.154Z,31.24
2023-10-10T00:07:28.628Z,31.23
2023-10-10T00:10:02.001Z,31.24
2023-10-10T00:12:32.919Z,31.27
2023-10-10T00:15:16.056Z,31.33
2023-10-10T00:17:48.609Z,31.35
2023-10-10T00:20:23.241Z,31.37
2023-10-10T00:23:01.059Z,31.36
2023-10-10T00:25:34.410Z,31.40
2023-10-10T00:28:11.215Z,31.43
2023-10-10T00:30:45.528Z,31.43
2023-10-10T00:33:19.824Z,31.38
2023-10-10T00:35:50.280Z,31.44
2023-10-10T00:38:26.846Z,31.43
2023-10-10T00:40:59.750Z,31.47
2023-10-10T00:43:33.412Z,31.48
2023-10-10T00:46:06.940Z,31.50
2023-10-10T00:48:40.451Z,31.52
2023-10-10T00:51:13.324Z,31.41
2023-10-10T00:53:47.844Z,31.61
2023-10-10T00:56:18.422Z,31.65
2023-10-10T00:58:50.545Z,31.70
2023-10-10T01:01:21.931Z,31.69
2023-10-10T01:03:52.653Z,31.70
2023-10-10T01:06:26.710Z,31.64
2023-10-10T01:09:17.426Z,31.52
2023-10-10T01:11:50.843Z,31.80
2023-10-10T01:14:23.554Z,31.86
2023-10-10T01:16:57.422Z,31.66
2023-10-10T01:19:31.041Z,31.91
2023-10-10T01:22:02.740Z,31.91
2023-10-10T01:24:33.900Z,31.91
2023-10-10T01:27:18.163Z,31.94
2023-10-10T01:30:14.219Z,31.96
2023-10-10T01:32:44.908Z,31.97
2023-10-10T01:35:19.071Z,31.96
2023-10-10T01:37:57.135Z,31.96
2023-10-10T01:40:30.808Z,32.01
2023-10-10T01:43:01.697Z,32.02
2023-10-10T01:45:32.272Z,32.03
2023-10-10T01:48:10.307Z,32.06
2023-10-10T01:50:41.099Z,32.04
2023-10-10T01:53:12.728Z,32.05
2023-10-10T01:55:44.370Z,32.07
2023-10-10T01:58:15.443Z,32.01
2023-10-10T02:00:48.826Z,32.07
2023-10-10T02:03:20.653Z,32.09
2023-10-10T02:05:54.938Z,31.76
2023-10-10T02:08:25.367Z,32.07
2023-10-10T02:10:57.690Z,32.06
2023-10-10T02:13:28.869Z,32.14
2023-10-10T02:16:01.733Z,32.13
2023-10-10T02:18:46.669Z,32.17
2023-10-10T02:21:20.830Z,32.17
2023-10-10T02:23:55.901Z,32.18
2023-10-10T02:26:30.661Z,32.10
2023-10-10T02:29:20.525Z,32.16
2023-10-10T02:31:58.237Z,32.19
2023-10-10T02:34:32.495Z,32.13
2023-10-10T02:37:29.327Z,32.11
2023-10-10T02:40:08.733Z,32.20
2023-10-10T02:42:39.901Z,32.05
2023-10-10T02:45:15.344Z,32.19
2023-10-10T02:47:55.173Z,32.24
2023-10-10T02:50:44.160Z,32.25
2023-10-10T02:53:17.122Z,32.25
2023-10-10T02:55:54.203Z,32.25
2023-10-10T02:58:25.097Z,32.27
2023-10-10T03:00:59.822Z,32.17
2023-10-10T03:03:30.593Z,32.28
2023-10-10T03:06:00.928Z,32.28
2023-10-10T03:08:39.265Z,32.21
2023-10-10T03:11:23.157Z,32.26
2023-10-10T03:14:03.204Z,32.27
2023-10-10T03:16:44.146Z,32.34
2023-10-10T03:19:16.307Z,32.34
2023-10-10T03:22:06.775Z,32.36
2023-10-10T03:24:53.931Z,32.37
2023-10-10T03:27:59.897Z,32.36
2023-10-10T03:30:48.532Z,32.33
2023-10-10T03:33:38.118Z,32.11
2023-10-10T03:36:22.684Z,32.36
2023-10-10T03:38:54.833Z,32.05
2023-10-10T03:41:25.651Z,32.33
2023-10-10T03:44:15.679Z,32.30
2023-10-10T03:47:02.170Z,32.36
2023-10-10T03:49:54.064Z,32.40
2023-10-10T03:52:42.838Z,32.37
2023-10-10T03:55:31.348Z,32.41
2023-10-10T03:58:20.110Z,32.40
2023-10-10T04:01:14.815Z,32.38
2023-10-10T04:04:04.074Z,32.40
2023-10-10T04:06:53.166Z,32.40
2023-10-10T04:09:41.601Z,32.38
2023-10-10T04:12:30.296Z,32.34
2023-10-10T04:15:19.422Z,32.29
2023-10-10T04:18:08.253Z,32.35
2023-10-10T04:20:57.039Z,32.37
2023-10-10T04:23:45.935Z,32.35
2023-10-10T04:26:34.643Z,32.38
2023-10-10T04:29:23.657Z,32.34
2023-10-10T04:32:12.564Z,32.35
2023-10-10T04:35:01.354Z,32.35
2023-10-10T04:37:50.359Z,32.30
2023-10-10T04:40:38.727Z,32.29
2023-10-10T04:43:27.645Z,32.30
2023-10-10T04:46:16.420Z,32.31
2023-10-10T04:49:05.403Z,32.30
2023-10-10T04:51:54.057Z,32.29
2023-10-10T04:54:42.885Z,32.28
2023-10-10T04:57:31.585Z,32.24
2023-10-10T05:00:20.161Z,32.26
2023-10-10T05:03:09.619Z,32.23
2023-10-10T05:05:58.454Z,32.16
2023-10-10T05:08:46.958Z,32.19
2023-10-10T05:11:39.201Z,32.03
2023-10-10T05:14:28.871Z,32.13
2023-10-10T05:17:19.109Z,32.16
2023-10-10T05:20:07.852Z,32.09
2023-10-10T05:22:56.850Z,32.08
2023-10-10T05:25:27.541Z,32.07
2023-10-10T05:28:01.700Z,32.09
2023-10-10T05:30:47.644Z,32.12
2023-10-10T05:33:21.884Z,32.08
2023-10-10T05:36:00.555Z,31.92
2023-10-10T05:38:31.172Z,32.09
2023-10-10T05:41:04.721Z,32.12
2023-10-10T05:43:36.711Z,32.12
2023-10-10T05:46:06.754Z,31.73
2023-10-10T05:48:38.009Z,31.98
2023-10-10T05:51:11.364Z,32.05
2023-10-10T05:53:42.335Z,32.11
2023-10-10T05:56:15.937Z,32.09
2023-10-10T05:58:46.751Z,32.09
2023-10-10T06:01:19.037Z,32.12
2023-10-10T06:03:49.720Z,32.13
2023-10-10T06:06:20.431Z,32.11
2023-10-10T06:09:02.396Z,32.16
2023-10-10T06:11:36.531Z,32.01
2023-10-10T06:14:07.107Z,32.17
2023-10-10T06:16:38.387Z,32.18
2023-10-10T06:19:15.788Z,32.18
2023-10-10T06:21:47.452Z,32.13
2023-10-10T06:24:18.379Z,32.19
2023-10-10T06:26:49.908Z,32.21
2023-10-10T06:29:20.504Z,32.25
2023-10-10T06:31:51.511Z,32.28
2023-10-10T06:34:24.291Z,32.29
2023-10-10T06:36:56.670Z,32.32
2023-10-10T06:39:34.915Z,32.35
2023-10-10T06:42:05.990Z,32.30
2023-10-10T06:44:50.327Z,32.38
2023-10-10T06:47:21.605Z,32.37
2023-10-10T06:50:00.322Z,32.38
2023-10-10T06:52:32.437Z,32.44
2023-10-10T06:55:10.826Z,32.43
2023-10-10T06:57:45.429Z,32.49
2023-10-10T07:00:17.516Z,32.52
2023-10-10T07:02:51.605Z,32.51
2023-10-10T07:05:22.525Z,32.49
2023-10-10T07:08:02.985Z,32.51
2023-10-10T07:10:38.147Z,32.56
2023-10-10T07:13:14.829Z,32.53
2023-10-10T07:15:53.492Z,32.58
2023-10-10T07:18:25.008Z,32.61
2023-10-10T07:21:10.974Z,32.62
2023-10-10T07:23:55.463Z,32.63
2023-10-10T07:26:30.863Z,32.56
2023-10-10T07:29:21.192Z,32.65
2023-10-10T07:31:55.448Z,32.65
2023-10-10T07:34:37.251Z,32.61
2023-10-10T07:37:11.397Z,32.64
2023-10-10T07:40:11.208Z,32.60
2023-10-10T07:42:41.857Z,32.63
2023-10-10T07:45:18.465Z,32.71
2023-10-10T07:48:17.832Z,32.63
2023-10-10T07:50:51.409Z,32.71
2023-10-10T07:53:22.379Z,32.66
2023-10-10T07:55:56.263Z,32.67
2023-10-10T07:58:49.167Z,32.74
2023-10-10T08:01:22.787Z,32.75
2023-10-10T08:03:53.353Z,32.67
2023-10-10T08:06:24.390Z,32.73
2023-10-10T08:09:15.129Z,32.67
2023-10-10T08:11:47.421Z,32.73
2023-10-10T08:14:19.920Z,32.62
2023-10-10T08:16:50.382Z,32.65
2023-10-10T08:19:20.811Z,32.69
2023-10-10T08:21:52.097Z,32.75
2023-10-10T08:24:22.773Z,32.73
2023-10-10T08:26:53.797Z,32.65
2023-10-10T08:29:29.324Z,32.74
2023-10-10T08:31:59.936Z,32.75
2023-10-10T08:34:30.570Z,32.76
2023-10-10T08:37:06.020Z,32.75
2023-10-10T08:39:41.628Z,32.71
2023-10-10T08:42:16.957Z,32.71
2023-10-10T08:44:57.856Z,32.70
2023-10-10T08:47:34.612Z,32.66
2023-10-10T08:50:06.145Z,32.70
2023-10-10T08:52:40.665Z,32.69
2023-10-10T08:55:13.466Z,32.64
2023-10-10T08:57:45.749Z,32.34
2023-10-10T09:00:19.973Z,32.73
2023-10-10T09:02:51.677Z,32.56
2023-10-10T09:05:21.990Z,32.40
2023-10-10T09:07:56.082Z,32.66
2023-10-10T09:10:41.693Z,32.69
2023-10-10T09:13:15.823Z,32.69
2023-10-10T09:16:09.364Z,32.57
2023-10-10T09:18:40.021Z,32.66
2023-10-10T09:21:24.776Z,32.67
2023-10-10T09:24:16.055Z,32.67
2023-10-10T09:26:47.147Z,32.66
2023-10-10T09:29:45.334Z,32.07
2023-10-10T09:32:17.691Z,32.29
2023-10-10T09:34:51.261Z,32.14
2023-10-10T09:37:32.047Z,32.18
2023-10-10T09:40:07.169Z,31.76
2023-10-10T09:43:01.372Z,31.86
2023-10-10T09:45:53.160Z,31.78
2023-10-10T09:48:30.888Z,32.11
2023-10-10T09:51:18.228Z,32.05
2023-10-10T09:53:49.483Z,32.05
2023-10-10T09:56:23.488Z,31.98
2023-10-10T09:58:55.438Z,32.03
2023-10-10T10:01:26.586Z,31.78
2023-10-10T10:04:05.722Z,31.73
2023-10-10T10:06:46.081Z,32.03
2023-10-10T10:09:35.145Z,32.00
2023-10-10T10:12:38.564Z,31.94
2023-10-10T10:15:53.401Z,31.92
2023-10-10T10:18:31.178Z,31.97
2023-10-10T10:21:11.071Z,31.97
2023-10-10T10:23:47.511Z,31.94
2023-10-10T10:26:34.198Z,31.83
2023-10-10T10:29:17.846Z,31.76
2023-10-10T10:31:59.611Z,31.97
2023-10-10T10:34:33.577Z,31.94
2023-10-10T10:37:22.571Z,31.51
2023-10-10T10:40:14.863Z,31.95
2023-10-10T10:42:48.990Z,31.71
2023-10-10T10:45:37.184Z,31.84
2023-10-10T10:48:32.718Z,31.92
2023-10-10T10:51:34.794Z,31.71
2023-10-10T10:54:05.786Z,31.76
2023-10-10T10:56:36.462Z,31.86
2023-10-10T10:59:15.205Z,31.91
2023-10-10T11:01:59.788Z,31.90
2023-10-10T11:04:33.574Z,31.92
2023-10-10T11:07:10.937Z,31.59
2023-10-10T11:10:08.131Z,31.88
2023-10-10T11:12:42.668Z,31.94
2023-10-10T11:15:13.456Z,31.80
2023-10-10T11:17:55.801Z,31.75
2023-10-10T11:20:31.509Z,31.86
2023-10-10T11:23:14.826Z,31.87
2023-10-10T11:25:49.203Z,31.87
2023-10-10T11:28:26.577Z,31.89
2023-10-10T11:31:00.840Z,31.82
2023-10-10T11:33:48.429Z,31.84
2023-10-10T11:36:31.785Z,31.72
2023-10-10T11:39:17.644Z,31.82
2023-10-10T11:41:49.357Z,31.80
2023-10-10T11:44:22.012Z,31.86
2023-10-10T11:47:05.052Z,31.74
2023-10-10T11:49:35.654Z,31.82
2023-10-10T11:52:06.313Z,31.76
2023-10-10T11:54:37.426Z,31.72
2023-10-10T11:57:08.091Z,31.77
2023-10-10T11:59:44.080Z,31.34
2023-10-10T12:02:19.439Z,31.71
2023-10-10T12:04:50.222Z,31.68
2023-10-10T12:07:20.736Z,31.57
2023-10-10T12:09:54.170Z,31.60
2023-10-10T12:12:26.650Z,31.65
2023-10-10T12:15:02.453Z,31.72
2023-10-10T12:17:40.646Z,31.67
2023-10-10T12:20:11.589Z,31.55
2023-10-10T12:22:42.044Z,31.42
2023-10-10T12:25:16.289Z,31.66
2023-10-10T12:27:48.616Z,31.65
2023-10-10T12:30:21.376Z,31.59
2023-10-10T12:32:52.145Z,31.59
2023-10-10T12:35:26.577Z,31.52
2023-10-10T12:38:03.473Z,31.55
2023-10-10T12:40:35.700Z,31.53
2023-10-10T12:43:06.611Z,31.52
2023-10-10T12:45:36.960Z,31.55
2023-10-10T12:48:16.283Z,31.54
2023-10-10T12:50:47.289Z,31.52
2023-10-10T12:53:18.153Z,31.21
2023-10-10T12:55:57.732Z,31.52
2023-10-10T12:58:28.743Z,31.67
2023-10-10T13:01:00.926Z,31.72
2023-10-10T13:03:32.861Z,31.81
2023-10-10T13:06:05.745Z,31.50
2023-10-10T13:09:02.676Z,31.46
2023-10-10T13:11:35.359Z,31.48
2023-10-10T13:14:11.572Z,31.48
2023-10-10T13:16:47.082Z,31.50
2023-10-10T13:19:22.901Z,31.52
2023-10-10T13:21:55.394Z,31.53
2023-10-10T13:24:26.539Z,31.54
2023-10-10T13:26:56.723Z,31.55
2023-10-10T13:29:26.577Z,31.56
2023-10-10T13:31:57.178Z,31.57
2023-10-10T13:34:27.305Z,31.59
2023-10-10T13:36:57.060Z,31.58
2023-10-10T13:39:42.953Z,31.43
2023-10-10T13:42:16.546Z,31.32
2023-10-10T13:44:46.863Z,31.23
2023-10-10T13:47:19.215Z,31.17
2023-10-10T13:50:01.049Z,31.13
2023-10-10T13:52:34.030Z,31.08
2023-10-10T13:55:04.316Z,31.04
2023-10-10T13:57:34.108Z,31.02
2023-10-10T14:00:20.714Z,31.03
2023-10-10T14:02:51.043Z,31.05
2023-10-10T14:05:22.316Z,31.05
2023-10-10T14:07:52.394Z,31.07
2023-10-10T14:10:23.245Z,31.09
2023-10-10T14:12:58.609Z,31.08
2023-10-10T14:15:33.565Z,31.11
2023-10-10T14:18:03.567Z,31.11
2023-10-10T14:20:33.875Z,31.16
2023-10-10T14:23:05.416Z,31.13
2023-10-10T14:25:39.688Z,31.16
2023-10-10T14:28:09.690Z,31.15
2023-10-10T14:30:39.792Z,31.15
2023-10-10T14:33:11.055Z,31.09
2023-10-10T14:35:42.157Z,31.08
2023-10-10T14:38:18.481Z,30.97
2023-10-10T14:40:48.683Z,30.85
2023-10-10T14:43:18.669Z,30.75
2023-10-10T14:45:50.937Z,30.65
2023-10-10T14:48:23.614Z,30.57
2023-10-10T14:50:56.455Z,30.47
2023-10-10T14:53:26.649Z,30.40
2023-10-10T14:55:56.404Z,30.32
2023-10-10T14:58:26.429Z,30.24
2023-10-10T15:00:59.516Z,30.20
2023-10-10T15:03:31.385Z,30.14
2023-10-10T15:06:08.469Z,30.11
2023-10-10T15:08:38.767Z,30.05
2023-10-10T15:11:10.412Z,30.02
2023-10-10T15:13:43.772Z,30.00
2023-10-10T15:16:13.819Z,29.96
2023-10-10T15:18:43.767Z,29.94
2023-10-10T15:21:14.430Z,29.91
2023-10-10T15:23:46.066Z,29.88
2023-10-10T15:26:20.571Z,29.83
2023-10-10T15:28:54.447Z,29.79
2023-10-10T15:31:29.406Z,29.78
2023-10-10T15:34:00.193Z,29.76
2023-10-10T15:36:33.280Z,29.74
2023-10-10T15:39:12.357Z,29.72
2023-10-10T15:41:44.846Z,29.70
2023-10-10T15:44:17.433Z,29.68
2023-10-10T15:46:47.469Z,29.67
2023-10-10T15:49:35.061Z,29.65
2023-10-10T15:52:06.600Z,29.63
2023-10-10T15:54:37.040Z,29.60
2023-10-10T15:57:11.006Z,29.60
2023-10-10T15:59:44.101Z,29.59
2023-10-10T16:02:16.101Z,29.56
2023-10-10T16:04:46.866Z,29.56
2023-10-10T16:07:18.578Z,29.55
2023-10-10T16:09:48.646Z,29.53
2023-10-10T16:12:18.626Z,29.50
2023-10-10T16:14:49.921Z,29.60
2023-10-10T16:17:20.085Z,29.69
2023-10-10T16:19:49.863Z,29.76
2023-10-10T16:22:19.893Z,29.78
2023-10-10T16:24:54.842Z,29.81
2023-10-10T16:27:25.093Z,29.83
2023-10-10T16:29:58.004Z,29.84
2023-10-10T16:32:28.786Z,29.87
2023-10-10T16:34:59.286Z,29.87
2023-10-10T16:37:29.274Z,29.86
2023-10-10T16:40:00.671Z,29.86
2023-10-10T16:42:30.866Z,29.87
2023-10-10T16:45:01.114Z,29.83
2023-10-10T16:47:31.530Z,29.81
2023-10-10T16:50:01.832Z,29.82
2023-10-10T16:52:32.076Z,29.79
2023-10-10T16:55:01.850Z,29.80
2023-10-10T16:57:31.976Z,29.78
2023-10-10T17:00:01.923Z,29.77
2023-10-10T17:02:33.235Z,29.76
2023-10-10T17:05:06.924Z,29.75
2023-10-10T17:07:36.929Z,29.74
2023-10-10T17:10:08.992Z,29.72
2023-10-10T17:12:41.548Z,29.73
2023-10-10T17:15:24.030Z,29.70
2023-10-10T17:17:54.103Z,29.70
2023-10-10T17:20:23.912Z,29.68
2023-10-10T17:22:53.605Z,29.56
2023-10-10T17:25:23.603Z,29.65
2023-10-10T17:27:54.642Z,29.63
2023-10-10T17:30:29.469Z,29.62
2023-10-10T17:32:59.658Z,29.60
2023-10-10T17:35:32.217Z,29.29
2023-10-10T17:38:02.463Z,29.58
2023-10-10T17:40:34.588Z,29.57
2023-10-10T17:43:05.906Z,29.57
2023-10-10T17:45:37.289Z,29.54
2023-10-10T17:48:07.634Z,29.56
2023-10-10T17:50:40.263Z,29.54
2023-10-10T17:53:13.951Z,29.53
2023-10-10T17:55:44.686Z,29.50
2023-10-10T17:58:17.142Z,29.50
2023-10-10T18:00:50.579Z,29.47
2023-10-10T18:03:21.714Z,29.48
2023-10-10T18:05:51.569Z,29.47
2023-10-10T18:08:21.615Z,29.47
2023-10-10T18:10:51.469Z,29.44
2023-10-10T18:13:21.441Z,29.44
2023-10-10T18:15:51.142Z,29.43
2023-10-10T18:18:21.258Z,29.43
2023-10-10T18:20:52.094Z,29.40
2023-10-10T18:23:22.166Z,29.39
2023-10-10T18:25:52.149Z,29.38
2023-10-10T18:28:22.027Z,29.38
2023-10-10T18:30:52.083Z,29.36
2023-10-10T18:33:21.942Z,29.36
2023-10-10T18:35:52.546Z,29.35
2023-10-10T18:38:23.308Z,29.32
2023-10-10T18:40:55.465Z,29.31
2023-10-10T18:43:25.963Z,29.29
2023-10-10T18:45:55.822Z,29.30
2023-10-10T18:48:29.724Z,29.29
2023-10-10T18:50:59.840Z,29.26
2023-10-10T18:53:29.614Z,29.26
2023-10-10T18:56:00.860Z,29.24
2023-10-10T18:58:30.986Z,29.24
2023-10-10T19:01:02.765Z,29.22
2023-10-10T19:03:32.864Z,29.19
2023-10-10T19:06:02.830Z,29.18
2023-10-10T19:08:33.072Z,29.16
2023-10-10T19:11:03.024Z,29.16
2023-10-10T19:13:33.428Z,29.16
2023-10-10T19:16:04.272Z,29.13
2023-10-10T19:18:37.136Z,29.13
2023-10-10T19:21:15.105Z,29.13
2023-10-10T19:23:45.919Z,29.11
2023-10-10T19:26:16.871Z,29.10
2023-10-10T19:28:55.030Z,29.08
2023-10-10T19:31:25.275Z,29.07
2023-10-10T19:33:55.219Z,29.06
2023-10-10T19:36:25.751Z,29.06
2023-10-10T19:38:55.703Z,29.05
2023-10-10T19:41:25.662Z,29.04
2023-10-10T19:43:55.468Z,29.02
2023-10-10T19:46:25.870Z,29.02
2023-10-10T19:48:55.948Z,28.99
2023-10-10T19:51:27.416Z,29.00
2023-10-10T19:53:57.529Z,28.98
2023-10-10T19:56:27.253Z,28.98
2023-10-10T19:59:03.661Z,28.96
2023-10-10T20:01:35.792Z,28.96
2023-10-10T20:04:06.190Z,28.95
2023-10-10T20:06:35.959Z,28.94
2023-10-10T20:09:12.490Z,28.94
2023-10-10T20:11:42.512Z,28.93
2023-10-10T20:14:12.504Z,28.92
2023-10-10T20:16:42.396Z,28.92
2023-10-10T20:19:12.187Z,28.91
2023-10-10T20:21:42.390Z,28.91
2023-10-10T20:24:12.873Z,28.89
2023-10-10T20:26:43.013Z,28.87
2023-10-10T20:29:12.682Z,28.85
2023-10-10T20:31:42.531Z,28.84
2023-10-10T20:34:12.166Z,28.85
2023-10-10T20:36:42.533Z,28.83
2023-10-10T20:39:20.425Z,28.82
2023-10-10T20:41:50.697Z,28.81
2023-10-10T20:44:20.490Z,28.81
2023-10-10T20:46:51.521Z,28.79
2023-10-10T20:49:21.377Z,28.79
2023-10-10T20:51:56.838Z,28.78
2023-10-10T20:54:29.519Z,28.79
2023-10-10T20:56:59.575Z,28.77
2023-10-10T20:59:31.847Z,28.77
2023-10-10T21:02:01.919Z,28.76
2023-10-10T21:04:31.878Z,28.75
2023-10-10T21:07:01.799Z,28.76
2023-10-10T21:09:34.465Z,28.73
2023-10-10T21:12:09.486Z,28.73
2023-10-10T21:14:39.470Z,28.73
2023-10-10T21:17:09.226Z,28.71
2023-10-10T21:19:42.315Z,28.71
2023-10-10T21:22:13.104Z,28.68
2023-10-10T21:24:43.105Z,28.68
2023-10-10T21:27:13.149Z,28.67
2023-10-10T21:29:43.266Z,28.66
2023-10-10T21:32:14.219Z,28.67
2023-10-10T21:34:45.211Z,28.66
2023-10-10T21:37:15.790Z,28.66
2023-10-10T21:39:45.926Z,28.66
2023-10-10T21:42:16.524Z,28.63
2023-10-10T21:44:47.598Z,28.65
2023-10-10T21:47:17.499Z,28.64
2023-10-10T21:49:47.441Z,28.62
2023-10-10T21:52:20.091Z,28.63
2023-10-10T21:54:50.450Z,28.62
2023-10-10T21:57:20.101Z,28.61
2023-10-10T21:59:52.245Z,28.60
2023-10-10T22:02:23.358Z,28.58
2023-10-10T22:04:53.423Z,28.59
2023-10-10T22:07:29.775Z,28.60
2023-10-10T22:10:00.535Z,28.58
2023-10-10T22:12:30.223Z,28.58
2023-10-10T22:15:00.285Z,28.57
2023-10-10T22:17:30.774Z,28.56
2023-10-10T22:20:01.225Z,28.54
2023-10-10T22:22:31.264Z,28.54
2023-10-10T22:25:02.149Z,28.54
2023-10-10T22:27:32.154Z,28.54
2023-10-10T22:30:01.972Z,28.51
2023-10-10T22:32:31.937Z,28.52
2023-10-10T22:35:02.952Z,28.37
2023-10-10T22:37:34.249Z,28.51
2023-10-10T22:40:04.604Z,28.49
2023-10-10T22:42:34.521Z,28.48
2023-10-10T22:45:04.316Z,28.48
2023-10-10T22:47:34.324Z,28.46
2023-10-10T22:50:07.802Z,28.46
2023-10-10T22:52:40.410Z,28.46
2023-10-10T22:55:12.283Z,28.49
2023-10-10T22:57:45.588Z,28.53
2023-10-10T23:00:16.309Z,28.59
2023-10-10T23:02:51.005Z,28.57
2023-10-10T23:05:22.241Z,28.60
2023-10-10T23:07:52.338Z,28.63
2023-10-10T23:10:24.888Z,28.64
2023-10-10T23:12:55.367Z,28.69
2023-10-10T23:15:28.592Z,28.74
2023-10-10T23:18:02.926Z,28.79
2023-10-10T23:20:35.538Z,28.81
2023-10-10T23:23:06.762Z,28.83
2023-10-10T23:25:36.589Z,28.88
2023-10-10T23:28:06.591Z,28.92
2023-10-10T23:30:36.441Z,28.93
2023-10-10T23:33:07.136Z,28.98
2023-10-10T23:35:39.291Z,28.98
2023-10-10T23:38:11.090Z,29.03
2023-10-10T23:40:41.942Z,29.04
2023-10-10T23:43:23.834Z,29.13
2023-10-10T23:45:59.563Z,29.22
2023-10-10T23:48:32.946Z,29.31
2023-10-10T23:51:08.972Z,29.36
2023-10-10T23:53:39.063Z,29.43
2023-10-10T23:56:10.188Z,29.51
2023-10-10T23:58:40.174Z,29.56
